Time,TemperatureF,DewpointF,PressureIn,WindDirection,WindDirectionDegrees,WindSpeedMPH,WindSpeedGustMPH,Humidity,HourlyPrecipIn,Conditions,Clouds,dailyrainin,SolarRadiationWatts/m^2,SoftwareType,DateUTC
2014-01-10 00:02:00,42.8,38.6,30.26,West,269,0.0,1.2,85,0.00,RA,FEW,0.00,0.0,WeatherDisplay:10.37,2014-01-10 06:02:00,
2014-01-10 00:07:00,42.7,38.5,30.25,South,190,0.0,0.0,85,0.00,OVC,FEW,0.00,0.0,WeatherDisplay:10.37,2014-01-10 06:07:00,
2014-01-10 00:12:00,42.7,38.5,30.25,South,190,0.0,0.0,85,0.00,OVC,FEW,0.00,0.0,WeatherDisplay:10.37,2014-01-10 06:12:00,
2014-01-10 00:17:00,42.6,38.4,30.25,South,190,0.0,0.0,85,0.00,OVC,FEW,0.00,0.0,WeatherDisplay:10.37,2014-01-10 06:17:00,
2014-01-10 00:22:00,42.5,38.6,30.25,South,190,0.0,0.0,86,0.00,OVC,FEW,0.00,0.0,WeatherDisplay:10.37,2014-01-10 06:22:00,
2014-01-10 00:27:00,42.4,38.5,30.25,South,190,0.0,0.0,86,0.00,OVC,FEW,0.00,0.0,WeatherDisplay:10.37,2014-01-10 06:27:00,
2014-01-10 00:32:00,42.3,38.4,30.25,South,186,0.8,3.5,86,0.00,OVC,FEW,0.00,0.0,WeatherDisplay:10.37,2014-01-10 06:32:00,
2014-01-10 00:37:00,42.3,38.4,30.25,SSE,152,0.4,2.3,86,0.00,OVC,FEW,0.00,0.0,WeatherDisplay:10.37,2014-01-10 06:37:00,
2014-01-10 00:42:00,42.4,38.5,30.24,SSE,148,0.1,1.2,86,0.00,OVC,FEW,0.00,0.0,WeatherDisplay:10.37,2014-01-10 06:42:00,
2014-01-10 00:47:00,42.4,38.5,30.24,SE,139,0.1,1.2,86,0.00,OVC,FEW,0.00,0.0,WeatherDisplay:10.37,2014-01-10 06:47:00,
2014-01-10 00:52:00,42.4,38.5,30.24,SE,140,0.6,2.3,86,0.00,OVC,FEW,0.00,0.0,WeatherDisplay:10.37,2014-01-10 06:52:00,
2014-01-10 00:57:00,42.4,38.5,30.24,SSE,168,0.3,3.5,86,0.00,OVC,FEW,0.00,0.0,WeatherDisplay:10.37,2014-01-10 06:57:00,
2014-01-10 01:02:00,42.4,38.5,30.24,South,171,0.3,2.3,86,0.00,OVC,FEW,0.00,0.0,WeatherDisplay:10.37,2014-01-10 07:02:00,
2014-01-10 01:07:00,42.4,38.5,30.24,South,171,0.0,0.0,86,0.00,OVC,FEW,0.00,0.0,WeatherDisplay:10.37,2014-01-10 07:07:00,
2014-01-10 01:13:00,42.2,38.3,30.23,South,170,1.1,4.0,86,0.00,OVC,FEW,0.00,0.0,WeatherDisplay:10.37,2014-01-10 07:13:00,
2014-01-10 01:18:00,42.1,38.2,30.23,South,170,0.0,0.0,86,0.00,OVC,FEW,0.00,0.0,WeatherDisplay:10.37,2014-01-10 07:18:00,
2014-01-10 01:23:00,42.1,38.2,30.23,South,172,0.8,3.5,86,0.00,OVC,FEW,0.00,0.0,WeatherDisplay:10.37,2014-01-10 07:23:00,
2014-01-10 01:28:00,42.3,38.7,30.24,South,183,1.0,3.5,87,0.00,OVC,FEW,0.00,0.0,WeatherDisplay:10.37,2014-01-10 07:28:00,
2014-01-10 01:33:00,42.6,38.7,30.24,South,189,1.4,4.6,86,0.00,OVC,FEW,0.00,0.0,WeatherDisplay:10.37,2014-01-10 07:33:00,
2014-01-10 01:38:00,42.9,38.7,30.24,SSW,211,2.0,4.6,85,0.00,OVC,FEW,0.00,0.0,WeatherDisplay:10.37,2014-01-10 07:38:00,
2014-01-10 01:43:00,43.0,38.8,30.23,South,171,0.7,3.5,85,0.00,OVC,FEW,0.00,0.0,WeatherDisplay:10.37,2014-01-10 07:43:00,
2014-01-10 01:48:00,43.0,38.8,30.24,SSE,165,2.4,8.0,85,0.00,OVC,FEW,0.00,0.0,WeatherDisplay:10.37,2014-01-10 07:48:00,
2014-01-10 01:53:00,43.0,38.8,30.24,SE,138,0.0,3.5,85,0.00,OVC,FEW,0.00,0.0,WeatherDisplay:10.37,2014-01-10 07:53:00,
2014-01-10 01:58:00,43.0,38.8,30.24,SE,142,0.5,2.3,85,0.00,OVC,FEW,0.00,0.0,WeatherDisplay:10.37,2014-01-10 07:58:00,
2014-01-10 02:03:00,42.9,39.0,30.24,SSE,150,1.0,5.8,86,0.00,OVC,FEW,0.00,0.0,WeatherDisplay:10.37,2014-01-10 08:03:00,
2014-01-10 02:08:00,43.0,39.1,30.23,SE,136,1.4,5.8,86,0.00,OVC,FEW,0.00,0.0,WeatherDisplay:10.37,2014-01-10 08:08:00,
2014-01-10 02:13:00,43.1,39.2,30.23,SSE,167,1.7,4.0,86,0.00,OVC,FEW,0.00,0.0,WeatherDisplay:10.37,2014-01-10 08:13:00,
2014-01-10 02:18:00,43.0,39.4,30.23,ESE,111,2.2,6.9,87,0.00,OVC,FEW,0.00,0.0,WeatherDisplay:10.37,2014-01-10 08:18:00,
2014-01-10 02:23:00,43.1,39.5,30.23,SSE,166,0.8,3.5,87,0.00,OVC,FEW,0.00,0.0,WeatherDisplay:10.37,2014-01-10 08:23:00,
2014-01-10 02:28:00,43.1,39.5,30.23,SE,137,0.7,3.5,87,0.00,OVC,FEW,0.00,0.0,WeatherDisplay:10.37,2014-01-10 08:28:00,
2014-01-10 02:33:00,43.0,39.4,30.23,SE,129,1.6,4.0,87,0.00,OVC,FEW,0.00,0.0,WeatherDisplay:10.37,2014-01-10 08:33:00,
2014-01-10 02:38:00,43.0,39.4,30.22,SSW,203,2.9,4.6,87,0.00,OVC,FEW,0.00,0.0,WeatherDisplay:10.37,2014-01-10 08:38:00,
2014-01-10 02:43:00,43.0,39.4,30.22,SE,145,1.2,4.6,87,0.00,OVC,FEW,0.00,0.0,WeatherDisplay:10.37,2014-01-10 08:43:00,
2014-01-10 02:48:00,42.9,39.3,30.21,SSW,192,1.9,4.6,87,0.00,OVC,FEW,0.00,0.0,WeatherDisplay:10.37,2014-01-10 08:48:00,
2014-01-10 02:53:00,43.0,39.7,30.22,South,172,1.9,3.5,88,0.00,OVC,FEW,0.00,0.0,WeatherDisplay:10.37,2014-01-10 08:53:00,
2014-01-10 02:58:00,42.9,39.6,30.21,SSE,153,1.1,3.5,88,0.00,OVC,FEW,0.00,0.0,WeatherDisplay:10.37,2014-01-10 08:58:00,
2014-01-10 03:03:00,42.9,39.6,30.21,SSE,148,1.2,2.3,88,0.00,OVC,FEW,0.00,0.0,WeatherDisplay:10.37,2014-01-10 09:03:00,
2014-01-10 03:08:00,42.8,39.5,30.21,South,185,0.5,2.3,88,0.00,OVC,FEW,0.00,0.0,WeatherDisplay:10.37,2014-01-10 09:08:00,
2014-01-10 03:13:00,42.8,39.5,30.21,SSE,161,1.3,4.0,88,0.00,OVC,FEW,0.00,0.0,WeatherDisplay:10.37,2014-01-10 09:13:00,
2014-01-10 03:18:00,42.7,39.4,30.21,South,176,1.4,10.0,88,0.00,OVC,FEW,0.00,0.0,WeatherDisplay:10.37,2014-01-10 09:18:00,
2014-01-10 03:23:00,42.7,39.4,30.21,SSE,147,3.1,3.5,88,0.00,OVC,FEW,0.00,0.0,WeatherDisplay:10.37,2014-01-10 09:23:00,
2014-01-10 03:28:00,42.6,39.3,30.21,SE,146,0.8,4.6,88,0.00,OVC,FEW,0.00,0.0,WeatherDisplay:10.37,2014-01-10 09:28:00,
2014-01-10 03:34:00,42.5,39.2,30.20,SE,134,1.8,8.1,88,0.00,OVC,FEW,0.00,0.0,WeatherDisplay:10.37,2014-01-10 09:34:00,
2014-01-10 03:39:00,42.5,39.2,30.20,SSW,208,2.0,4.0,88,0.00,OVC,FEW,0.00,0.0,WeatherDisplay:10.37,2014-01-10 09:39:00,
2014-01-10 03:44:00,42.4,39.1,30.20,South,190,3.1,6.0,88,0.00,OVC,FEW,0.00,0.0,WeatherDisplay:10.37,2014-01-10 09:44:00,
2014-01-10 03:49:00,42.4,39.4,30.20,South,187,1.1,3.0,89,0.00,OVC,FEW,0.00,0.0,WeatherDisplay:10.37,2014-01-10 09:49:00,
2014-01-10 03:54:00,42.4,39.4,30.20,SE,134,2.1,4.6,89,0.00,OVC,FEW,0.00,0.0,WeatherDisplay:10.37,2014-01-10 09:54:00,
2014-01-10 03:59:00,42.5,39.5,30.20,SSE,155,0.5,6.9,89,0.00,OVC,FEW,0.00,0.0,WeatherDisplay:10.37,2014-01-10 09:59:00,
2014-01-10 04:04:00,42.6,39.6,30.19,ESE,116,2.1,6.0,89,0.00,OVC,FEW,0.00,0.0,WeatherDisplay:10.37,2014-01-10 10:04:00,
2014-01-10 04:09:00,42.7,39.7,30.19,South,177,3.8,5.8,89,0.00,OVC,FEW,0.00,0.0,WeatherDisplay:10.37,2014-01-10 10:09:00,
2014-01-10 04:14:00,43.0,40.0,30.19,South,182,4.4,5.0,89,0.00,OVC,FEW,0.00,0.0,WeatherDisplay:10.37,2014-01-10 10:14:00,
2014-01-10 04:19:00,43.2,40.2,30.19,SSE,156,3.3,9.2,89,0.00,OVC,FEW,0.00,0.0,WeatherDisplay:10.37,2014-01-10 10:19:00,
2014-01-10 04:24:00,43.3,40.3,30.19,South,173,3.2,6.9,89,0.00,OVC,FEW,0.00,0.0,WeatherDisplay:10.37,2014-01-10 10:24:00,
2014-01-10 04:29:00,43.4,40.4,30.19,SSW,196,3.0,3.5,89,0.00,OVC,FEW,0.00,0.0,WeatherDisplay:10.37,2014-01-10 10:29:00,
2014-01-10 04:34:00,43.5,40.5,30.19,SSE,165,3.3,7.0,89,0.00,OVC,FEW,0.00,0.0,WeatherDisplay:10.37,2014-01-10 10:34:00,
2014-01-10 04:39:00,43.6,40.6,30.18,SSE,150,2.0,6.9,89,0.00,OVC,FEW,0.00,0.0,WeatherDisplay:10.37,2014-01-10 10:39:00,
2014-01-10 04:44:00,43.6,40.6,30.17,SSE,155,3.7,4.6,89,0.00,OVC,FEW,0.00,0.0,WeatherDisplay:10.37,2014-01-10 10:44:00,
2014-01-10 04:49:00,43.7,40.7,30.19,WNW,292,3.0,3.5,89,0.00,OVC,FEW,0.00,0.0,WeatherDisplay:10.37,2014-01-10 10:49:00,
2014-01-10 04:54:00,43.9,40.9,30.18,SW,230,0.6,1.2,89,0.00,OVC,FEW,0.00,0.0,WeatherDisplay:10.37,2014-01-10 10:54:00,
2014-01-10 04:59:00,43.9,40.9,30.18,SSE,152,3.9,6.0,89,0.00,OVC,FEW,0.00,0.0,WeatherDisplay:10.37,2014-01-10 10:59:00,
2014-01-10 05:04:00,44.0,41.0,30.18,South,180,2.0,8.1,89,0.00,OVC,FEW,0.00,0.0,WeatherDisplay:10.37,2014-01-10 11:04:00,
2014-01-10 05:09:00,44.0,41.3,30.18,South,175,1.0,6.9,90,0.00,OVC,FEW,0.00,0.0,WeatherDisplay:10.37,2014-01-10 11:09:00,
2014-01-10 05:14:00,44.0,41.3,30.18,South,191,3.9,4.0,90,0.00,OVC,FEW,0.00,0.0,WeatherDisplay:10.37,2014-01-10 11:14:00,
2014-01-10 05:19:00,44.1,41.4,30.18,South,184,2.5,3.5,90,0.00,OVC,FEW,0.00,0.0,WeatherDisplay:10.37,2014-01-10 11:19:00,
2014-01-10 05:24:00,44.1,41.4,30.18,SSE,162,4.7,6.9,90,0.00,OVC,FEW,0.00,0.0,WeatherDisplay:10.37,2014-01-10 11:24:00,
2014-01-10 05:29:00,44.1,41.4,30.17,SE,141,3.3,8.1,90,0.00,OVC,FEW,0.00,0.0,WeatherDisplay:10.37,2014-01-10 11:29:00,
2014-01-10 05:34:00,44.0,41.3,30.17,South,178,3.1,5.8,90,0.00,OVC,FEW,0.00,0.0,WeatherDisplay:10.37,2014-01-10 11:34:00,
2014-01-10 05:39:00,44.0,41.5,30.18,SSW,192,2.9,6.9,91,0.00,OVC,FEW,0.00,0.0,WeatherDisplay:10.37,2014-01-10 11:39:00,
2014-01-10 05:44:00,44.2,41.7,30.17,SSE,155,4.0,8.1,91,0.00,OVC,FEW,0.00,0.0,WeatherDisplay:10.37,2014-01-10 11:44:00,
2014-01-10 05:49:00,44.2,41.7,30.17,SSW,194,3.9,8.1,91,0.00,OVC,FEW,0.00,0.0,WeatherDisplay:10.37,2014-01-10 11:49:00,
2014-01-10 05:54:00,44.2,41.7,30.16,ESE,114,5.7,9.2,91,0.00,OVC,FEW,0.00,0.0,WeatherDisplay:10.37,2014-01-10 11:54:00,
2014-01-10 05:59:00,44.2,41.7,30.16,SSE,167,3.0,8.1,91,0.00,OVC,FEW,0.00,0.0,WeatherDisplay:10.37,2014-01-10 11:59:00,
2014-01-10 06:04:00,44.3,41.8,30.17,South,180,3.5,6.9,91,0.00,OVC,FEW,0.00,0.0,WeatherDisplay:10.37,2014-01-10 12:04:00,
2014-01-10 06:09:00,44.3,41.8,30.17,SSW,199,4.6,9.2,91,0.00,OVC,FEW,0.00,0.0,WeatherDisplay:10.37,2014-01-10 12:09:00,
2014-01-10 06:14:00,44.3,42.1,30.17,SSE,165,4.3,10.0,92,0.00,OVC,FEW,0.00,0.0,WeatherDisplay:10.37,2014-01-10 12:14:00,
2014-01-10 06:19:00,44.3,42.1,30.17,ESE,120,1.6,5.8,92,0.00,OVC,FEW,0.00,0.0,WeatherDisplay:10.37,2014-01-10 12:19:00,
2014-01-10 06:24:00,44.3,42.1,30.17,SSE,153,2.2,4.6,92,0.00,OVC,FEW,0.00,0.0,WeatherDisplay:10.37,2014-01-10 12:24:00,
2014-01-10 06:29:00,44.3,42.1,30.17,SE,145,1.8,4.0,92,0.00,OVC,FEW,0.00,0.0,WeatherDisplay:10.37,2014-01-10 12:29:00,
2014-01-10 06:34:00,44.3,42.1,30.17,SSE,154,3.1,6.9,92,0.00,OVC,FEW,0.00,0.0,WeatherDisplay:10.37,2014-01-10 12:34:00,
2014-01-10 06:39:00,44.3,42.1,30.17,SE,134,2.7,9.2,92,0.00,OVC,FEW,0.00,0.0,WeatherDisplay:10.37,2014-01-10 12:39:00,
2014-01-10 06:44:00,44.2,42.0,30.17,SSW,211,1.2,3.5,92,0.00,OVC,FEW,0.00,0.0,WeatherDisplay:10.37,2014-01-10 12:44:00,
2014-01-10 06:49:00,44.2,42.3,30.17,South,179,2.0,4.6,93,0.00,OVC,FEW,0.00,0.0,WeatherDisplay:10.37,2014-01-10 12:49:00,
2014-01-10 06:54:00,44.2,42.3,30.17,South,172,0.9,3.5,93,0.00,OVC,FEW,0.00,0.0,WeatherDisplay:10.37,2014-01-10 12:54:00,
2014-01-10 07:00:00,44.2,42.3,30.17,ESE,105,5.2,8.1,93,0.00,OVC,FEW,0.00,0.0,WeatherDisplay:10.37,2014-01-10 13:00:00,
2014-01-10 07:05:00,44.2,42.3,30.17,SSE,147,3.2,8.0,93,0.00,OVC,FEW,0.00,0.0,WeatherDisplay:10.37,2014-01-10 13:05:00,
2014-01-10 07:10:00,44.2,42.3,30.17,SSE,147,3.9,8.1,93,0.00,OVC,FEW,0.00,0.0,WeatherDisplay:10.37,2014-01-10 13:10:00,
2014-01-10 07:15:00,44.2,42.3,30.17,South,177,3.1,5.0,93,0.00,OVC,FEW,0.00,5.0,WeatherDisplay:10.37,2014-01-10 13:15:00,
2014-01-10 07:20:00,44.2,42.6,30.16,SSE,150,3.9,5.8,94,0.00,OVC,FEW,0.00,7.0,WeatherDisplay:10.37,2014-01-10 13:20:00,
2014-01-10 07:25:00,44.2,42.6,30.16,South,185,1.4,3.5,94,0.00,OVC,FEW,0.00,12.0,WeatherDisplay:10.37,2014-01-10 13:25:00,
2014-01-10 07:30:00,44.3,42.7,30.17,WSW,254,3.2,5.8,94,0.00,OVC,FEW,0.00,14.0,WeatherDisplay:10.37,2014-01-10 13:30:00,
2014-01-10 07:35:00,44.3,42.7,30.17,SSW,193,3.8,11.5,94,0.00,OVC,FEW,0.00,14.0,WeatherDisplay:10.37,2014-01-10 13:35:00,
2014-01-10 07:40:00,44.3,42.7,30.17,SE,136,1.0,6.9,94,0.00,OVC,FEW,0.00,14.0,WeatherDisplay:10.37,2014-01-10 13:40:00,
2014-01-10 07:45:00,44.4,42.8,30.17,South,171,3.1,9.0,94,0.00,OVC,FEW,0.00,16.0,WeatherDisplay:10.37,2014-01-10 13:45:00,
2014-01-10 07:50:00,44.5,42.9,30.17,SE,144,3.4,6.9,94,0.00,OVC,FEW,0.00,21.0,WeatherDisplay:10.37,2014-01-10 13:50:00,
2014-01-10 07:55:00,44.5,42.9,30.17,South,190,3.7,8.1,94,0.00,OVC,FEW,0.00,21.0,WeatherDisplay:10.37,2014-01-10 13:55:00,
2014-01-10 08:00:00,44.6,43.0,30.17,South,173,4.6,10.0,94,0.00,OVC,FEW,0.00,25.0,WeatherDisplay:10.37,2014-01-10 14:00:00,
2014-01-10 08:05:00,44.7,43.1,30.17,South,188,3.2,7.0,94,0.00,OVC,FEW,0.00,26.0,WeatherDisplay:10.37,2014-01-10 14:05:00,
2014-01-10 08:10:00,44.8,43.2,30.17,SSE,161,5.1,8.1,94,0.00,OVC,FEW,0.00,35.0,WeatherDisplay:10.37,2014-01-10 14:10:00,
2014-01-10 08:15:00,44.9,43.3,30.17,SSE,165,2.2,5.8,94,0.00,OVC,FEW,0.00,35.0,WeatherDisplay:10.37,2014-01-10 14:15:00,
2014-01-10 08:20:00,45.0,43.4,30.17,South,175,3.6,8.1,94,0.00,OVC,FEW,0.00,42.0,WeatherDisplay:10.37,2014-01-10 14:20:00,
2014-01-10 08:25:00,45.1,43.5,30.17,SSE,160,2.8,8.0,94,0.00,OVC,FEW,0.00,49.0,WeatherDisplay:10.37,2014-01-10 14:25:00,
2014-01-10 08:30:00,45.2,43.6,30.17,SSE,162,4.1,8.1,94,0.00,OVC,FEW,0.00,46.0,WeatherDisplay:10.37,2014-01-10 14:30:00,
2014-01-10 08:35:00,45.3,43.7,30.16,SSE,153,3.9,6.9,94,0.00,OVC,FEW,0.00,46.0,WeatherDisplay:10.37,2014-01-10 14:35:00,
2014-01-10 08:40:00,45.4,43.8,30.16,SSE,162,3.4,8.1,94,0.00,OVC,FEW,0.00,39.0,WeatherDisplay:10.37,2014-01-10 14:40:00,
2014-01-10 08:45:00,45.4,43.8,30.17,South,176,2.8,9.2,94,0.00,OVC,FEW,0.00,35.0,WeatherDisplay:10.37,2014-01-10 14:45:00,
2014-01-10 08:50:00,45.4,43.8,30.17,South,171,2.4,5.8,94,0.00,OVC,FEW,0.00,39.0,WeatherDisplay:10.37,2014-01-10 14:50:00,
2014-01-10 08:55:00,45.5,43.9,30.17,South,171,3.6,6.9,94,0.00,OVC,FEW,0.00,40.0,WeatherDisplay:10.37,2014-01-10 14:55:00,
2014-01-10 09:00:00,45.5,43.9,30.17,South,179,1.6,3.0,94,0.00,OVC,FEW,0.00,47.0,WeatherDisplay:10.37,2014-01-10 15:00:00,
2014-01-10 09:05:00,45.6,44.0,30.16,SW,228,1.7,3.5,94,0.00,OVC,FEW,0.00,53.0,WeatherDisplay:10.37,2014-01-10 15:05:00,
2014-01-10 09:10:00,45.7,44.1,30.17,South,180,1.2,4.6,94,0.00,OVC,FEW,0.00,46.0,WeatherDisplay:10.37,2014-01-10 15:10:00,
2014-01-10 09:15:00,45.7,44.1,30.17,South,169,2.0,2.3,94,0.00,OVC,FEW,0.00,53.0,WeatherDisplay:10.37,2014-01-10 15:15:00,
2014-01-10 09:20:00,45.7,44.1,30.16,South,171,2.3,5.8,94,0.00,OVC,FEW,0.00,53.0,WeatherDisplay:10.37,2014-01-10 15:20:00,
2014-01-10 09:25:00,45.8,44.2,30.16,SSW,211,6.1,10.4,94,0.00,OVC,FEW,0.00,56.0,WeatherDisplay:10.37,2014-01-10 15:25:00,
2014-01-10 09:30:00,45.8,44.2,30.16,SSE,154,3.1,6.9,94,0.00,OVC,FEW,0.00,51.0,WeatherDisplay:10.37,2014-01-10 15:30:00,
2014-01-10 09:35:00,45.8,44.2,30.16,SSE,159,3.8,6.9,94,0.00,OVC,FEW,0.00,46.0,WeatherDisplay:10.37,2014-01-10 15:35:00,
2014-01-10 09:40:00,45.9,44.3,30.16,SSW,196,3.8,8.0,94,0.00,OVC,FEW,0.00,54.0,WeatherDisplay:10.37,2014-01-10 15:40:00,
2014-01-10 09:45:00,45.9,44.3,30.15,SE,140,4.9,5.8,94,0.00,OVC,FEW,0.00,40.0,WeatherDisplay:10.37,2014-01-10 15:45:00,
2014-01-10 09:50:00,45.9,44.3,30.15,South,174,1.9,3.5,94,0.00,OVC,FEW,0.00,51.0,WeatherDisplay:10.37,2014-01-10 15:50:00,
2014-01-10 09:55:00,45.9,44.3,30.15,SSW,200,1.6,4.6,94,0.00,OVC,FEW,0.00,49.0,WeatherDisplay:10.37,2014-01-10 15:55:00,
2014-01-10 10:00:00,45.9,44.3,30.15,SSE,159,3.8,12.0,94,0.00,OVC,FEW,0.00,46.0,WeatherDisplay:10.37,2014-01-10 16:00:00,
2014-01-10 10:05:00,46.0,44.4,30.15,South,181,3.6,8.1,94,0.00,OVC,FEW,0.00,54.0,WeatherDisplay:10.37,2014-01-10 16:05:00,
2014-01-10 10:10:00,46.0,44.4,30.15,SE,133,6.5,9.2,94,0.00,OVC,FEW,0.00,47.0,WeatherDisplay:10.37,2014-01-10 16:10:00,
2014-01-10 10:15:00,46.1,44.5,30.14,South,191,1.2,3.5,94,0.00,OVC,FEW,0.00,62.0,WeatherDisplay:10.37,2014-01-10 16:15:00,
2014-01-10 10:20:00,46.1,44.5,30.13,SSW,196,1.9,4.6,94,0.00,OVC,FEW,0.00,84.0,WeatherDisplay:10.37,2014-01-10 16:20:00,
2014-01-10 10:25:00,46.2,44.6,30.12,SE,135,0.0,2.3,94,0.00,OVC,FEW,0.00,97.0,WeatherDisplay:10.37,2014-01-10 16:25:00,
2014-01-10 10:30:00,46.4,44.8,30.12,SE,125,2.0,5.8,94,0.00,OVC,FEW,0.00,144.0,WeatherDisplay:10.37,2014-01-10 16:30:00,
2014-01-10 10:35:00,46.6,45.0,30.12,South,176,2.4,4.6,94,0.00,OVC,FEW,0.00,146.0,WeatherDisplay:10.37,2014-01-10 16:35:00,
2014-01-10 10:40:00,46.7,45.1,30.12,SSE,161,0.1,1.2,94,0.00,OVC,FEW,0.00,125.0,WeatherDisplay:10.37,2014-01-10 16:40:00,
2014-01-10 10:45:00,46.9,45.3,30.12,SSE,165,0.1,1.2,94,0.00,OVC,FEW,0.00,151.0,WeatherDisplay:10.37,2014-01-10 16:45:00,
2014-01-10 10:51:00,47.1,45.5,30.11,East,96,0.1,1.2,94,0.00,OVC,FEW,0.00,116.0,WeatherDisplay:10.37,2014-01-10 16:51:00,
2014-01-10 10:56:00,47.2,45.3,30.11,South,175,0.4,2.3,93,0.00,OVC,FEW,0.00,113.0,WeatherDisplay:10.37,2014-01-10 16:56:00,
2014-01-10 11:01:00,47.2,45.3,30.10,South,170,5.3,9.2,93,0.00,OVC,FEW,0.00,120.0,WeatherDisplay:10.37,2014-01-10 17:01:00,
2014-01-10 11:06:00,47.2,45.3,30.10,SSE,165,3.6,6.9,93,0.00,OVC,FEW,0.00,105.0,WeatherDisplay:10.37,2014-01-10 17:06:00,
2014-01-10 11:11:00,47.3,45.4,30.09,South,191,5.0,10.4,93,0.00,OVC,FEW,0.00,107.0,WeatherDisplay:10.37,2014-01-10 17:11:00,
2014-01-10 11:16:00,47.2,45.3,30.09,East,96,3.4,6.9,93,0.00,OVC,FEW,0.00,105.0,WeatherDisplay:10.37,2014-01-10 17:16:00,
2014-01-10 11:21:00,47.2,45.3,30.08,SE,128,2.5,8.1,93,0.00,OVC,FEW,0.00,107.0,WeatherDisplay:10.37,2014-01-10 17:21:00,
2014-01-10 11:26:00,47.3,45.4,30.07,SE,138,4.3,6.9,93,0.00,OVC,FEW,0.00,118.0,WeatherDisplay:10.37,2014-01-10 17:26:00,
2014-01-10 11:31:00,47.3,45.4,30.06,SE,136,1.6,4.6,93,0.00,OVC,FEW,0.00,95.0,WeatherDisplay:10.37,2014-01-10 17:31:00,
2014-01-10 11:36:00,47.4,45.5,30.06,SSE,159,2.5,4.0,93,0.00,OVC,FEW,0.00,102.0,WeatherDisplay:10.37,2014-01-10 17:36:00,
2014-01-10 11:41:00,47.4,45.5,30.05,SE,146,2.6,2.6,93,0.00,OVC,FEW,0.00,88.0,WeatherDisplay:10.37,2014-01-10 17:41:00,
2014-01-10 11:46:00,47.4,45.5,30.05,SE,129,4.5,9.2,93,0.00,OVC,FEW,0.00,90.0,WeatherDisplay:10.37,2014-01-10 17:46:00,
2014-01-10 11:51:00,47.4,45.5,30.04,SSE,150,3.4,6.9,93,0.00,OVC,FEW,0.00,88.0,WeatherDisplay:10.37,2014-01-10 17:51:00,
2014-01-10 11:56:00,47.4,45.5,30.03,South,176,1.0,8.1,93,0.00,OVC,FEW,0.00,86.0,WeatherDisplay:10.37,2014-01-10 17:56:00,
2014-01-10 12:01:00,47.4,45.5,30.03,ESE,113,0.7,2.0,93,0.00,OVC,FEW,0.00,83.0,WeatherDisplay:10.37,2014-01-10 18:01:00,
2014-01-10 12:06:00,47.5,45.6,30.03,SE,135,2.6,4.0,93,0.00,OVC,FEW,0.00,81.0,WeatherDisplay:10.37,2014-01-10 18:06:00,
2014-01-10 12:11:00,47.6,45.7,30.02,East,101,4.0,8.1,93,0.00,OVC,FEW,0.00,77.0,WeatherDisplay:10.37,2014-01-10 18:11:00,
2014-01-10 12:16:00,47.6,45.7,30.02,South,190,3.2,10.4,93,0.00,OVC,FEW,0.00,79.0,WeatherDisplay:10.37,2014-01-10 18:16:00,
2014-01-10 12:21:00,47.6,45.7,30.01,SE,142,2.5,4.6,93,0.00,OVC,FEW,0.00,79.0,WeatherDisplay:10.37,2014-01-10 18:21:00,
2014-01-10 12:26:00,47.6,45.7,30.01,South,175,2.4,6.9,93,0.00,OVC,FEW,0.00,69.0,WeatherDisplay:10.37,2014-01-10 18:26:00,
2014-01-10 12:31:00,47.7,45.8,30.01,SE,140,2.2,4.6,93,0.00,OVC,FEW,0.00,63.0,WeatherDisplay:10.37,2014-01-10 18:31:00,
2014-01-10 12:36:00,47.7,45.8,30.00,SE,135,1.4,5.8,93,0.00,OVC,FEW,0.00,72.0,WeatherDisplay:10.37,2014-01-10 18:36:00,
2014-01-10 12:41:00,47.8,45.9,30.00,ESE,112,3.5,4.6,93,0.00,OVC,FEW,0.00,95.0,WeatherDisplay:10.37,2014-01-10 18:41:00,
2014-01-10 12:46:00,47.8,45.9,29.99,SSE,154,4.6,4.6,93,0.00,OVC,FEW,0.00,107.0,WeatherDisplay:10.37,2014-01-10 18:46:00,
2014-01-10 12:51:00,48.0,46.1,29.99,ESE,117,3.6,6.9,93,0.00,OVC,FEW,0.00,109.0,WeatherDisplay:10.37,2014-01-10 18:51:00,
2014-01-10 12:56:00,48.0,46.1,29.98,ESE,121,3.9,9.2,93,0.00,OVC,FEW,0.00,100.0,WeatherDisplay:10.37,2014-01-10 18:56:00,
2014-01-10 13:01:00,48.2,46.0,29.97,SSE,160,2.5,6.9,92,0.00,OVC,FEW,0.00,98.0,WeatherDisplay:10.37,2014-01-10 19:01:00,
2014-01-10 13:06:00,48.3,46.1,29.98,South,183,2.3,6.9,92,0.00,OVC,FEW,0.00,120.0,WeatherDisplay:10.37,2014-01-10 19:06:00,
2014-01-10 13:11:00,48.4,46.2,29.98,SSE,157,2.5,6.0,92,0.00,OVC,FEW,0.00,91.0,WeatherDisplay:10.37,2014-01-10 19:11:00,
2014-01-10 13:16:00,48.4,46.2,29.99,South,185,4.3,5.8,92,0.00,OVC,FEW,0.00,76.0,WeatherDisplay:10.37,2014-01-10 19:16:00,
2014-01-10 13:21:00,48.4,46.2,29.97,ESE,115,4.1,5.8,92,0.00,OVC,FEW,0.00,88.0,WeatherDisplay:10.37,2014-01-10 19:21:00,
2014-01-10 13:26:00,48.5,46.3,29.97,SE,134,4.6,5.8,92,0.00,OVC,FEW,0.00,97.0,WeatherDisplay:10.37,2014-01-10 19:26:00,
2014-01-10 13:31:00,48.6,46.1,29.97,SSW,199,4.3,5.8,91,0.00,OVC,FEW,0.00,118.0,WeatherDisplay:10.37,2014-01-10 19:31:00,
2014-01-10 13:36:00,48.7,46.2,29.97,South,169,2.7,8.1,91,0.00,OVC,FEW,0.00,95.0,WeatherDisplay:10.37,2014-01-10 19:36:00,
2014-01-10 13:41:00,48.8,46.3,29.97,South,189,0.9,8.1,91,0.00,OVC,FEW,0.00,76.0,WeatherDisplay:10.37,2014-01-10 19:41:00,
2014-01-10 13:46:00,48.9,46.4,29.97,SSE,148,4.2,9.2,91,0.00,OVC,FEW,0.00,76.0,WeatherDisplay:10.37,2014-01-10 19:46:00,
2014-01-10 13:51:00,49.0,46.5,29.96,SSE,158,1.4,4.6,91,0.00,OVC,FEW,0.00,76.0,WeatherDisplay:10.37,2014-01-10 19:51:00,
2014-01-10 13:56:00,49.0,46.5,29.96,SSE,167,4.0,8.1,91,0.00,OVC,FEW,0.00,88.0,WeatherDisplay:10.37,2014-01-10 19:56:00,
2014-01-10 14:01:00,49.1,46.6,29.96,SSE,165,3.4,6.9,91,0.00,OVC,FEW,0.00,76.0,WeatherDisplay:10.37,2014-01-10 20:01:00,
2014-01-10 14:06:00,49.2,46.7,29.96,WSW,252,4.5,6.9,91,0.00,OVC,FEW,0.00,77.0,WeatherDisplay:10.37,2014-01-10 20:06:00,
2014-01-10 14:11:00,49.3,46.5,29.96,South,179,4.6,9.2,90,0.00,OVC,FEW,0.00,76.0,WeatherDisplay:10.37,2014-01-10 20:11:00,
2014-01-10 14:16:00,49.5,46.7,29.96,South,180,5.9,12.7,90,0.00,OVC,FEW,0.00,72.0,WeatherDisplay:10.37,2014-01-10 20:16:00,
2014-01-10 14:21:00,49.6,46.8,29.95,South,184,1.8,6.0,90,0.00,OVC,FEW,0.00,91.0,WeatherDisplay:10.37,2014-01-10 20:21:00,
2014-01-10 14:26:00,49.7,46.9,29.95,SE,138,5.8,11.5,90,0.00,OVC,FEW,0.00,77.0,WeatherDisplay:10.37,2014-01-10 20:26:00,
2014-01-10 14:31:00,49.8,47.0,29.95,SE,142,3.5,8.1,90,0.00,OVC,FEW,0.00,77.0,WeatherDisplay:10.37,2014-01-10 20:31:00,
2014-01-10 14:36:00,49.8,47.0,29.94,SE,131,0.8,8.1,90,0.00,OVC,FEW,0.00,83.0,WeatherDisplay:10.37,2014-01-10 20:36:00,
2014-01-10 14:41:00,50.0,47.2,29.94,SSW,194,4.3,9.2,90,0.00,OVC,FEW,0.00,77.0,WeatherDisplay:10.37,2014-01-10 20:41:00,
2014-01-10 14:47:00,50.1,47.0,29.94,SSE,168,4.0,10.4,89,0.00,OVC,FEW,0.00,67.0,WeatherDisplay:10.37,2014-01-10 20:47:00,
2014-01-10 14:52:00,50.2,47.1,29.95,SE,136,5.0,11.5,89,0.00,OVC,FEW,0.00,58.0,WeatherDisplay:10.37,2014-01-10 20:52:00,
2014-01-10 14:57:00,50.3,47.2,29.95,WSW,247,2.2,10.4,89,0.00,OVC,FEW,0.00,46.0,WeatherDisplay:10.37,2014-01-10 20:57:00,
2014-01-10 15:02:00,50.3,47.2,29.95,SSW,207,3.9,8.1,89,0.00,OVC,FEW,0.00,33.0,WeatherDisplay:10.37,2014-01-10 21:02:00,
2014-01-10 15:07:00,50.3,47.2,29.95,SW,227,3.8,7.0,89,0.00,OVC,FEW,0.00,37.0,WeatherDisplay:10.37,2014-01-10 21:07:00,
2014-01-10 15:12:00,50.3,47.2,29.95,WSW,244,3.0,6.9,89,0.00,OVC,FEW,0.00,33.0,WeatherDisplay:10.37,2014-01-10 21:12:00,
2014-01-10 15:17:00,50.4,47.6,29.95,SSW,201,5.5,9.2,90,0.00,OVC,FEW,0.00,30.0,WeatherDisplay:10.37,2014-01-10 21:17:00,
2014-01-10 15:22:00,50.3,47.5,29.96,SE,135,1.2,3.5,90,0.00,OVC,FEW,0.00,32.0,WeatherDisplay:10.37,2014-01-10 21:22:00,
2014-01-10 15:27:00,50.3,47.5,29.96,SSW,202,5.9,10.4,90,0.00,OVC,FEW,0.00,30.0,WeatherDisplay:10.37,2014-01-10 21:27:00,
2014-01-10 15:32:00,50.4,47.6,29.96,SSW,206,2.1,5.8,90,0.00,OVC,FEW,0.00,39.0,WeatherDisplay:10.37,2014-01-10 21:32:00,
2014-01-10 15:37:00,50.5,47.7,29.95,West,273,6.9,10.4,90,0.00,OVC,FEW,0.00,30.0,WeatherDisplay:10.37,2014-01-10 21:37:00,
2014-01-10 15:42:00,50.5,47.7,29.95,SSW,192,4.8,9.2,90,0.00,OVC,FEW,0.00,37.0,WeatherDisplay:10.37,2014-01-10 21:42:00,
2014-01-10 15:47:00,50.6,47.5,29.95,SSW,194,2.9,9.2,89,0.00,OVC,FEW,0.00,33.0,WeatherDisplay:10.37,2014-01-10 21:47:00,
2014-01-10 15:52:00,50.6,47.5,29.95,South,183,5.8,10.4,89,0.00,OVC,FEW,0.00,23.0,WeatherDisplay:10.37,2014-01-10 21:52:00,
2014-01-10 15:57:00,50.6,47.5,29.94,South,190,5.0,10.4,89,0.00,OVC,FEW,0.00,26.0,WeatherDisplay:10.37,2014-01-10 21:57:00,
2014-01-10 16:02:00,50.7,47.6,29.94,SSW,203,5.1,8.0,89,0.00,OVC,FEW,0.00,21.0,WeatherDisplay:10.37,2014-01-10 22:02:00,
2014-01-10 16:07:00,50.7,47.6,29.93,South,186,3.6,9.2,89,0.00,OVC,FEW,0.00,18.0,WeatherDisplay:10.37,2014-01-10 22:07:00,
2014-01-10 16:12:00,50.7,47.6,29.93,SSE,167,3.1,6.9,89,0.00,OVC,FEW,0.00,16.0,WeatherDisplay:10.37,2014-01-10 22:12:00,
2014-01-10 16:17:00,50.7,47.6,29.93,South,175,6.0,11.5,89,0.00,OVC,FEW,0.00,23.0,WeatherDisplay:10.37,2014-01-10 22:17:00,
2014-01-10 16:22:00,50.8,47.7,29.93,South,171,2.3,9.2,89,0.00,OVC,FEW,0.00,18.0,WeatherDisplay:10.37,2014-01-10 22:22:00,
2014-01-10 16:27:00,50.7,47.6,29.92,South,176,3.0,6.9,89,0.00,OVC,FEW,0.00,18.0,WeatherDisplay:10.37,2014-01-10 22:27:00,
2014-01-10 16:32:00,50.7,47.6,29.92,South,191,1.5,5.8,89,0.00,OVC,FEW,0.00,14.0,WeatherDisplay:10.37,2014-01-10 22:32:00,
2014-01-10 16:37:00,50.7,47.6,29.91,SE,130,4.6,9.2,89,0.00,OVC,FEW,0.00,11.0,WeatherDisplay:10.37,2014-01-10 22:37:00,
2014-01-10 16:42:00,50.6,47.5,29.90,SE,144,5.5,10.4,89,0.00,OVC,FEW,0.00,7.0,WeatherDisplay:10.37,2014-01-10 22:42:00,
2014-01-10 16:47:00,50.5,47.4,29.91,SSW,197,3.6,4.6,89,0.00,OVC,FEW,0.00,0.0,WeatherDisplay:10.37,2014-01-10 22:47:00,
2014-01-10 16:52:00,50.6,47.5,29.90,SSE,168,2.1,4.6,89,0.00,OVC,FEW,0.00,0.0,WeatherDisplay:10.37,2014-01-10 22:52:00,
2014-01-10 16:57:00,50.6,47.5,29.90,SE,136,2.7,9.2,89,0.00,OVC,FEW,0.00,0.0,WeatherDisplay:10.37,2014-01-10 22:57:00,
2014-01-10 17:02:00,50.6,47.5,29.89,SE,125,5.1,11.5,89,0.00,OVC,FEW,0.00,0.0,WeatherDisplay:10.37,2014-01-10 23:02:00,
2014-01-10 17:07:00,50.7,47.6,29.89,ESE,121,6.0,10.0,89,0.00,OVC,FEW,0.00,0.0,WeatherDisplay:10.37,2014-01-10 23:07:00,
2014-01-10 17:12:00,50.9,48.1,29.88,SSW,195,6.9,15.0,90,0.00,OVC,FEW,0.00,0.0,WeatherDisplay:10.37,2014-01-10 23:12:00,
2014-01-10 17:17:00,51.0,47.9,29.87,South,185,3.5,10.4,89,0.00,OVC,FEW,0.00,0.0,WeatherDisplay:10.37,2014-01-10 23:17:00,
2014-01-10 17:22:00,51.0,47.9,29.85,East,92,2.0,6.9,89,0.00,OVC,FEW,0.00,0.0,WeatherDisplay:10.37,2014-01-10 23:22:00,
2014-01-10 17:27:00,50.9,48.1,29.86,SSE,152,3.0,8.1,90,0.00,OVC,FEW,0.00,0.0,WeatherDisplay:10.37,2014-01-10 23:27:00,
2014-01-10 17:32:00,51.0,48.2,29.85,South,171,4.1,9.2,90,0.00,OVC,FEW,0.00,0.0,WeatherDisplay:10.37,2014-01-10 23:32:00,
2014-01-10 17:37:00,51.1,48.3,29.85,ESE,121,3.7,8.1,90,0.00,OVC,FEW,0.00,0.0,WeatherDisplay:10.37,2014-01-10 23:37:00,
2014-01-10 17:42:00,51.1,48.3,29.85,SE,146,4.2,8.1,90,0.00,OVC,FEW,0.00,0.0,WeatherDisplay:10.37,2014-01-10 23:42:00,
2014-01-10 17:47:00,51.0,48.2,29.84,SSE,148,5.5,8.1,90,0.00,OVC,FEW,0.00,0.0,WeatherDisplay:10.37,2014-01-10 23:47:00,
2014-01-10 17:53:00,51.1,48.3,29.84,SW,225,6.4,12.7,90,0.00,OVC,FEW,0.00,0.0,WeatherDisplay:10.37,2014-01-10 23:53:00,
2014-01-10 17:58:00,51.3,48.5,29.84,SSW,207,4.7,11.5,90,0.00,OVC,FEW,0.00,0.0,WeatherDisplay:10.37,2014-01-10 23:58:00,
2014-01-10 18:03:00,51.5,48.7,29.84,SE,136,4.7,11.5,90,0.00,OVC,FEW,0.00,0.0,WeatherDisplay:10.37,2014-01-11 00:03:00,
2014-01-10 18:08:00,51.6,48.8,29.84,SE,138,4.1,10.0,90,0.00,OVC,FEW,0.00,0.0,WeatherDisplay:10.37,2014-01-11 00:08:00,
2014-01-10 18:13:00,51.6,48.8,29.85,South,172,3.7,6.9,90,0.00,OVC,FEW,0.00,0.0,WeatherDisplay:10.37,2014-01-11 00:13:00,
2014-01-10 18:18:00,51.6,48.8,29.84,ESE,115,3.7,10.4,90,0.00,OVC,FEW,0.00,0.0,WeatherDisplay:10.37,2014-01-11 00:18:00,
2014-01-10 18:23:00,51.6,48.8,29.84,SSE,167,3.2,8.1,90,0.00,OVC,FEW,0.00,0.0,WeatherDisplay:10.37,2014-01-11 00:23:00,
2014-01-10 18:28:00,51.6,48.8,29.84,SSE,153,1.6,4.6,90,0.00,OVC,FEW,0.00,0.0,WeatherDisplay:10.37,2014-01-11 00:28:00,
2014-01-10 18:33:00,51.5,48.7,29.83,SE,142,2.3,5.0,90,0.00,OVC,FEW,0.00,0.0,WeatherDisplay:10.37,2014-01-11 00:33:00,
2014-01-10 18:38:00,51.5,48.7,29.83,SE,141,2.8,5.8,90,0.00,OVC,FEW,0.00,0.0,WeatherDisplay:10.37,2014-01-11 00:38:00,
2014-01-10 18:43:00,51.5,48.7,29.83,SSE,156,6.2,10.0,90,0.00,OVC,FEW,0.00,0.0,WeatherDisplay:10.37,2014-01-11 00:43:00,
2014-01-10 18:48:00,51.5,48.7,29.83,South,185,6.2,9.2,90,0.00,OVC,FEW,0.00,0.0,WeatherDisplay:10.37,2014-01-11 00:48:00,
2014-01-10 18:53:00,51.5,48.7,29.82,SSW,203,4.7,9.2,90,0.00,OVC,FEW,0.00,0.0,WeatherDisplay:10.37,2014-01-11 00:53:00,
2014-01-10 18:58:00,51.5,48.7,29.82,SSE,159,3.1,4.6,90,0.00,OVC,FEW,0.00,0.0,WeatherDisplay:10.37,2014-01-11 00:58:00,
2014-01-10 19:03:00,51.5,48.7,29.82,SSE,151,5.0,11.5,90,0.00,OVC,FEW,0.00,0.0,WeatherDisplay:10.37,2014-01-11 01:03:00,
2014-01-10 19:08:00,51.6,48.8,29.82,ESE,121,3.6,9.2,90,0.00,OVC,FEW,0.00,0.0,WeatherDisplay:10.37,2014-01-11 01:08:00,
2014-01-10 19:13:00,51.7,48.9,29.81,SSE,168,2.6,10.4,90,0.00,OVC,FEW,0.00,0.0,WeatherDisplay:10.37,2014-01-11 01:13:00,
2014-01-10 19:18:00,51.7,48.9,29.81,SSW,196,3.0,10.4,90,0.00,OVC,FEW,0.00,0.0,WeatherDisplay:10.37,2014-01-11 01:18:00,
2014-01-10 19:23:00,51.9,49.1,29.81,South,182,4.7,11.5,90,0.00,OVC,FEW,0.00,0.0,WeatherDisplay:10.37,2014-01-11 01:23:00,
2014-01-10 19:28:00,52.0,49.2,29.80,SSW,200,3.6,10.4,90,0.00,OVC,FEW,0.00,0.0,WeatherDisplay:10.37,2014-01-11 01:28:00,
2014-01-10 19:33:00,52.1,49.3,29.80,SSE,168,4.6,11.5,90,0.00,OVC,FEW,0.00,0.0,WeatherDisplay:10.37,2014-01-11 01:33:00,
2014-01-10 19:38:00,52.1,49.0,29.80,SSE,165,4.9,9.2,89,0.00,OVC,FEW,0.00,0.0,WeatherDisplay:10.37,2014-01-11 01:38:00,
2014-01-10 19:43:00,52.1,49.3,29.80,SE,129,5.4,10.4,90,0.00,OVC,FEW,0.00,0.0,WeatherDisplay:10.37,2014-01-11 01:43:00,
2014-01-10 19:48:00,52.3,49.5,29.80,SSE,150,7.0,15.0,90,0.00,OVC,FEW,0.00,0.0,WeatherDisplay:10.37,2014-01-11 01:48:00,
2014-01-10 19:53:00,52.4,49.6,29.79,South,182,3.6,11.5,90,0.00,OVC,FEW,0.00,0.0,WeatherDisplay:10.37,2014-01-11 01:53:00,
2014-01-10 19:58:00,52.5,49.4,29.79,South,175,8.6,11.5,89,0.00,OVC,FEW,0.00,0.0,WeatherDisplay:10.37,2014-01-11 01:58:00,
2014-01-10 20:03:00,52.7,49.5,29.78,SSE,165,4.0,11.5,89,0.00,OVC,FEW,0.00,0.0,WeatherDisplay:10.37,2014-01-11 02:03:00,
2014-01-10 20:08:00,52.9,49.7,29.78,SSW,200,6.8,12.7,89,0.00,OVC,FEW,0.00,0.0,WeatherDisplay:10.37,2014-01-11 02:08:00,
2014-01-10 20:13:00,53.0,49.8,29.78,South,178,4.3,9.2,89,0.00,OVC,FEW,0.00,0.0,WeatherDisplay:10.37,2014-01-11 02:13:00,
2014-01-10 20:18:00,53.0,49.8,29.78,SSW,208,5.3,9.2,89,0.00,OVC,FEW,0.00,0.0,WeatherDisplay:10.37,2014-01-11 02:18:00,
2014-01-10 20:23:00,53.0,49.8,29.78,South,172,4.2,11.5,89,0.00,OVC,FEW,0.00,0.0,WeatherDisplay:10.37,2014-01-11 02:23:00,
2014-01-10 20:28:00,53.1,49.9,29.78,SSW,193,6.1,11.5,89,0.00,OVC,FEW,0.00,0.0,WeatherDisplay:10.37,2014-01-11 02:28:00,
2014-01-10 20:33:00,53.3,50.1,29.77,SE,142,3.3,4.6,89,0.00,OVC,FEW,0.00,0.0,WeatherDisplay:10.37,2014-01-11 02:33:00,
2014-01-10 20:38:00,53.5,50.3,29.77,SW,235,4.0,9.0,89,0.00,OVC,FEW,0.00,0.0,WeatherDisplay:10.37,2014-01-11 02:38:00,
2014-01-10 20:43:00,53.9,50.4,29.76,SSW,196,5.7,16.0,88,0.00,OVC,FEW,0.00,0.0,WeatherDisplay:10.37,2014-01-11 02:43:00,
2014-01-10 20:49:00,54.6,51.1,29.76,SE,132,4.9,11.5,88,0.00,OVC,FEW,0.00,0.0,WeatherDisplay:10.37,2014-01-11 02:49:00,
2014-01-10 20:54:00,54.9,51.1,29.76,SE,144,4.5,9.2,87,0.00,OVC,FEW,0.00,0.0,WeatherDisplay:10.37,2014-01-11 02:54:00,
2014-01-10 20:59:00,54.8,51.3,29.76,SSW,192,7.4,13.8,88,0.00,OVC,FEW,0.00,0.0,WeatherDisplay:10.37,2014-01-11 02:59:00,
2014-01-10 21:04:00,54.8,51.3,29.76,SSE,163,6.5,15.0,88,0.00,OVC,FEW,0.00,0.0,WeatherDisplay:10.37,2014-01-11 03:04:00,
2014-01-10 21:09:00,54.9,51.4,29.76,South,178,7.2,11.5,88,0.00,OVC,FEW,0.00,0.0,WeatherDisplay:10.37,2014-01-11 03:09:00,
2014-01-10 21:14:00,54.8,51.0,29.75,SSW,192,3.6,11.5,87,0.00,OVC,FEW,0.00,0.0,WeatherDisplay:10.37,2014-01-11 03:14:00,
2014-01-10 21:19:00,54.7,51.2,29.76,SSW,196,7.0,11.5,88,0.00,OVC,FEW,0.00,0.0,WeatherDisplay:10.37,2014-01-11 03:19:00,
2014-01-10 21:24:00,54.6,51.1,29.76,SSW,195,6.1,11.5,88,0.00,OVC,FEW,0.00,0.0,WeatherDisplay:10.37,2014-01-11 03:24:00,
2014-01-10 21:29:00,54.7,51.2,29.76,SW,219,6.9,16.0,88,0.00,OVC,FEW,0.00,0.0,WeatherDisplay:10.37,2014-01-11 03:29:00,
2014-01-10 21:34:00,54.7,51.2,29.75,SSW,200,5.8,12.7,88,0.00,OVC,FEW,0.00,0.0,WeatherDisplay:10.37,2014-01-11 03:34:00,
2014-01-10 21:39:00,54.7,51.2,29.75,SSE,147,7.4,11.5,88,0.00,OVC,FEW,0.00,0.0,WeatherDisplay:10.37,2014-01-11 03:39:00,
2014-01-10 21:44:00,54.8,51.3,29.75,SSE,147,5.7,11.5,88,0.00,OVC,FEW,0.00,0.0,WeatherDisplay:10.37,2014-01-11 03:44:00,
2014-01-10 21:49:00,54.9,51.4,29.75,South,188,4.0,9.0,88,0.00,OVC,FEW,0.00,0.0,WeatherDisplay:10.37,2014-01-11 03:49:00,
2014-01-10 21:54:00,54.9,51.4,29.74,South,180,6.8,12.7,88,0.00,OVC,FEW,0.00,0.0,WeatherDisplay:10.37,2014-01-11 03:54:00,
2014-01-10 21:59:00,55.0,51.5,29.74,SE,132,4.9,10.4,88,0.00,OVC,FEW,0.00,0.0,WeatherDisplay:10.37,2014-01-11 03:59:00,
2014-01-10 22:04:00,55.0,51.5,29.73,SSW,197,5.0,9.2,88,0.00,OVC,FEW,0.00,0.0,WeatherDisplay:10.37,2014-01-11 04:04:00,
2014-01-10 22:09:00,55.2,51.7,29.73,SW,224,6.8,11.5,88,0.00,OVC,FEW,0.00,0.0,WeatherDisplay:10.37,2014-01-11 04:09:00,
2014-01-10 22:14:00,55.3,51.8,29.73,South,180,8.1,11.5,88,0.00,OVC,FEW,0.00,0.0,WeatherDisplay:10.37,2014-01-11 04:14:00,
2014-01-10 22:19:00,55.4,51.9,29.72,South,186,4.3,11.5,88,0.00,OVC,FEW,0.00,0.0,WeatherDisplay:10.37,2014-01-11 04:19:00,
2014-01-10 22:24:00,55.5,52.0,29.75,WNW,290,5.2,9.0,88,0.00, +RA,FEW,0.00,0.0,WeatherDisplay:10.37,2014-01-11 04:24:00,
2014-01-10 22:29:00,55.2,51.7,29.77,WNW,298,11.7,15.0,88,0.00, +RA,FEW,0.00,0.0,WeatherDisplay:10.37,2014-01-11 04:29:00,
2014-01-10 22:34:00,54.5,51.3,29.78,WNW,286,10.0,12.7,89,0.02, +RA,FEW,0.02,0.0,WeatherDisplay:10.37,2014-01-11 04:34:00,
2014-01-10 22:39:00,53.2,50.6,29.78,West,260,10.7,18.4,91,0.10, +RA,FEW,0.10,0.0,WeatherDisplay:10.37,2014-01-11 04:39:00,
2014-01-10 22:44:00,52.5,50.5,29.76,NW,307,3.6,8.1,93,0.13, +RA,FEW,0.13,0.0,WeatherDisplay:10.37,2014-01-11 04:44:00,
2014-01-10 22:49:00,52.1,50.4,29.77,WNW,293,3.6,5.8,94,0.14, +RA,FEW,0.14,0.0,WeatherDisplay:10.37,2014-01-11 04:49:00,
2014-01-10 22:54:00,51.9,50.2,29.78,West,274,4.2,9.2,94,0.17, +RA,FEW,0.18,0.0,WeatherDisplay:10.37,2014-01-11 04:54:00,
2014-01-10 22:59:00,51.7,50.3,29.76,South,173,1.1,3.5,95,0.27, +RA,FEW,0.27,0.0,WeatherDisplay:10.37,2014-01-11 04:59:00,
2014-01-10 23:01:00,51.7,50.3,29.75,SSE,157,0.6,4.6,95,0.28, +RA,FEW,0.29,0.0,WeatherDisplay:10.37,2014-01-11 05:01:00,
2014-01-10 23:06:00,51.5,50.1,29.75,South,191,0.8,1.0,95,0.34, +RA,FEW,0.35,0.0,WeatherDisplay:10.37,2014-01-11 05:06:00,
2014-01-10 23:12:00,51.3,49.9,29.75,South,191,0.0,1.2,95,0.37, +RA,FEW,0.37,0.0,WeatherDisplay:10.37,2014-01-11 05:12:00,
2014-01-10 23:17:00,51.2,49.8,29.74,South,191,0.0,0.0,95,0.38, +RA,FEW,0.39,0.0,WeatherDisplay:10.37,2014-01-11 05:17:00,
2014-01-10 23:22:00,51.1,50.0,29.73,South,191,0.0,0.0,96,0.40, +RA,FEW,0.40,0.0,WeatherDisplay:10.37,2014-01-11 05:22:00,
2014-01-10 23:27:00,51.0,49.9,29.72,South,191,0.0,0.0,96,0.41, +RA,FEW,0.41,0.0,WeatherDisplay:10.37,2014-01-11 05:27:00,
2014-01-10 23:32:00,50.9,49.8,29.71,South,191,0.3,1.2,96,0.42, +RA,FEW,0.43,0.0,WeatherDisplay:10.37,2014-01-11 05:32:00,
2014-01-10 23:37:00,50.8,49.7,29.70,SE,136,0.3,2.3,96,0.41, +RA,FEW,0.43,0.0,WeatherDisplay:10.37,2014-01-11 05:37:00,
2014-01-10 23:42:00,50.9,49.8,29.70,SE,137,0.5,1.2,96,0.34, +RA,FEW,0.44,0.0,WeatherDisplay:10.37,2014-01-11 05:42:00,
2014-01-10 23:47:00,51.0,49.9,29.70,SSW,193,0.0,3.5,96,0.32, +RA,FEW,0.45,0.0,WeatherDisplay:10.37,2014-01-11 05:47:00,
2014-01-10 23:52:00,51.3,50.5,29.70,SSW,205,0.7,5.8,97,0.32, +RA,FEW,0.46,0.0,WeatherDisplay:10.37,2014-01-11 05:52:00,
2014-01-10 23:57:00,51.5,50.7,29.70,South,184,0.5,3.5,97,0.30, +RA,FEW,0.47,0.0,WeatherDisplay:10.37,2014-01-11 05:57:00,